createdAt,value
2023-02-19T00:02:23.997Z,6.57
2023-02-19T00:05:25.523Z,5.18
2023-02-19T00:08:27.117Z,5.20
2023-02-19T00:11:34.564Z,4.47
2023-02-19T00:14:36.155Z,5.05
2023-02-19T00:17:37.731Z,5.93
2023-02-19T00:20:39.270Z,6.10
2023-02-19T00:23:41.003Z,5.93
2023-02-19T00:26:43.661Z,4.72
2023-02-19T00:29:45.295Z,5.20
2023-02-19T00:32:51.696Z,5.63
2023-02-19T00:35:53.248Z,6.75
2023-02-19T00:38:55.299Z,5.60
2023-02-19T00:41:56.854Z,5.55
2023-02-19T00:44:58.482Z,6.03
2023-02-19T00:48:00.043Z,5.10
2023-02-19T00:51:01.615Z,6.00
2023-02-19T00:54:04.176Z,5.03
2023-02-19T00:57:06.431Z,5.82
2023-02-19T01:00:08.757Z,5.97
2023-02-19T01:03:10.482Z,5.80
2023-02-19T01:06:14.880Z,5.40
2023-02-19T01:09:16.521Z,5.65
2023-02-19T01:12:18.125Z,4.75
2023-02-19T01:15:19.728Z,5.20
2023-02-19T01:18:21.289Z,5.53
2023-02-19T01:21:25.550Z,7.07
2023-02-19T01:24:27.170Z,5.00
2023-02-19T01:27:28.895Z,5.82
2023-02-19T01:30:30.543Z,5.40
2023-02-19T01:33:33.422Z,5.22
2023-02-19T01:36:35.173Z,5.82
2023-02-19T01:39:36.752Z,5.65
2023-02-19T01:42:42.963Z,5.15
2023-02-19T01:45:45.715Z,5.30
2023-02-19T01:48:47.509Z,5.03
2023-02-19T01:52:12.718Z,5.40
2023-02-19T01:55:14.593Z,5.80
2023-02-19T01:58:16.704Z,5.03
2023-02-19T02:01:18.414Z,5.63
2023-02-19T02:04:20.019Z,4.85
2023-02-19T02:07:41.610Z,5.38
2023-02-19T02:10:43.672Z,5.45
2023-02-19T02:13:46.165Z,8.65
2023-02-19T02:17:09.107Z,6.35
2023-02-19T02:20:29.060Z,5.47
2023-02-19T02:24:02.093Z,5.70
2023-02-19T02:27:35.597Z,5.90
2023-02-19T02:30:46.305Z,5.18
2023-02-19T02:33:59.296Z,4.90
2023-02-19T02:37:03.560Z,5.30
2023-02-19T02:40:07.835Z,5.45
2023-02-19T02:43:10.318Z,6.28
2023-02-19T02:46:15.576Z,4.85
2023-02-19T02:49:24.537Z,5.20
2023-02-19T02:52:46.829Z,5.28
2023-02-19T02:55:52.103Z,6.60
2023-02-19T02:58:57.218Z,6.10
2023-02-19T03:02:14.770Z,5.97
2023-02-19T03:05:41.387Z,5.20
2023-02-19T03:08:56.124Z,5.93
2023-02-19T03:12:22.369Z,5.55
2023-02-19T03:15:48.854Z,5.95
2023-02-19T03:19:13.889Z,6.35
2023-02-19T03:22:26.345Z,5.85
2023-02-19T03:25:52.908Z,6.53
2023-02-19T03:29:23.675Z,6.63
2023-02-19T03:32:38.230Z,6.82
2023-02-19T03:35:45.612Z,5.95
2023-02-19T03:39:00.886Z,5.97
2023-02-19T03:42:18.293Z,6.00
2023-02-19T03:45:43.186Z,5.93
2023-02-19T03:48:52.264Z,7.32
2023-02-19T03:52:23.420Z,6.25
2023-02-19T03:55:30.897Z,6.72
2023-02-19T03:58:49.233Z,5.60
2023-02-19T04:01:56.006Z,6.07
2023-02-19T04:05:14.019Z,5.72
2023-02-19T04:08:19.660Z,5.68
2023-02-19T04:11:29.075Z,5.80
2023-02-19T04:14:44.179Z,6.15
2023-02-19T04:17:52.287Z,5.88
2023-02-19T04:20:54.663Z,6.22
2023-02-19T04:24:03.192Z,5.90
2023-02-19T04:27:06.996Z,5.30
2023-02-19T04:30:11.488Z,6.05
2023-02-19T04:33:13.835Z,6.97
2023-02-19T04:36:15.450Z,6.13
2023-02-19T04:39:17.562Z,5.93
2023-02-19T04:42:19.589Z,6.40
2023-02-19T04:45:21.617Z,5.97
2023-02-19T04:48:23.216Z,6.30
2023-02-19T04:51:25.119Z,6.07
2023-02-19T04:54:26.800Z,6.13
2023-02-19T04:57:28.784Z,6.45
2023-02-19T05:00:31.121Z,5.88
2023-02-19T05:03:35.714Z,5.30
2023-02-19T05:06:37.777Z,7.00
2023-02-19T05:09:39.485Z,5.78
2023-02-19T05:12:41.136Z,6.33
2023-02-19T05:15:43.238Z,5.70
2023-02-19T05:18:46.829Z,6.30
2023-02-19T05:21:49.094Z,6.75
2023-02-19T05:24:51.178Z,5.72
2023-02-19T05:28:12.911Z,6.47
2023-02-19T05:31:15.079Z,8.00
2023-02-19T05:34:17.187Z,6.10
2023-02-19T05:37:19.200Z,6.00
2023-02-19T05:40:22.220Z,5.97
2023-02-19T05:43:24.202Z,5.57
2023-02-19T05:46:29.824Z,5.95
2023-02-19T05:49:32.000Z,6.78
2023-02-19T05:52:33.998Z,6.32
2023-02-19T05:55:36.640Z,6.38
2023-02-19T05:58:38.279Z,6.20
2023-02-19T06:01:40.346Z,6.38
2023-02-19T06:04:42.325Z,7.10
2023-02-19T06:07:44.480Z,6.50
2023-02-19T06:10:46.482Z,5.72
2023-02-19T06:13:54.218Z,7.57
2023-02-19T06:16:56.356Z,6.13
2023-02-19T06:19:57.978Z,6.80
2023-02-19T06:22:59.668Z,7.03
2023-02-19T06:26:20.265Z,5.60
2023-02-19T06:29:22.418Z,6.80
2023-02-19T06:32:24.131Z,7.00
2023-02-19T06:35:26.282Z,8.10
2023-02-19T06:38:28.742Z,7.85
2023-02-19T06:41:32.060Z,6.30
2023-02-19T06:44:34.200Z,6.13
2023-02-19T06:47:35.826Z,7.15
2023-02-19T06:50:37.494Z,6.47
2023-02-19T06:53:40.333Z,6.88
2023-02-19T06:56:42.623Z,8.50
2023-02-19T06:59:44.557Z,8.98
2023-02-19T07:02:47.032Z,8.05
2023-02-19T07:05:49.570Z,8.33
2023-02-19T07:08:54.125Z,8.57
2023-02-19T07:11:55.888Z,10.55
2023-02-19T07:15:00.974Z,8.40
2023-02-19T07:18:05.295Z,8.23
2023-02-19T07:21:10.837Z,7.85
2023-02-19T07:24:12.864Z,7.97
2023-02-19T07:27:14.464Z,7.40
2023-02-19T07:30:16.599Z,7.45
2023-02-19T07:33:19.108Z,8.25
2023-02-19T07:36:23.718Z,10.73
2023-02-19T07:39:25.285Z,8.02
2023-02-19T07:42:26.953Z,9.15
2023-02-19T07:45:29.074Z,7.87
2023-02-19T07:48:31.828Z,7.40
2023-02-19T07:51:34.065Z,9.48
2023-02-19T07:54:36.224Z,7.82
2023-02-19T07:57:38.302Z,8.75
2023-02-19T08:00:40.364Z,8.10
2023-02-19T08:03:43.373Z,8.63
2023-02-19T08:06:45.628Z,9.43
2023-02-19T08:10:07.169Z,7.20
2023-02-19T08:13:19.951Z,7.40
2023-02-19T08:16:36.814Z,8.73
2023-02-19T08:19:39.781Z,7.88
2023-02-19T08:22:41.840Z,7.78
2023-02-19T08:25:44.224Z,7.70
2023-02-19T08:28:46.492Z,7.28
2023-02-19T08:31:48.628Z,7.72
2023-02-19T08:34:50.657Z,7.65
2023-02-19T08:37:56.974Z,6.97
2023-02-19T08:40:59.079Z,6.70
2023-02-19T08:44:01.237Z,6.05
2023-02-19T08:47:05.043Z,5.03
2023-02-19T08:50:08.759Z,4.25
2023-02-19T08:53:10.440Z,5.90
2023-02-19T08:56:15.037Z,5.55
2023-02-19T08:59:17.055Z,4.10
2023-02-19T09:02:18.666Z,2.65
2023-02-19T09:05:21.017Z,4.18
2023-02-19T09:08:23.107Z,4.27
2023-02-19T09:11:25.488Z,3.78
2023-02-19T09:14:27.529Z,5.80
2023-02-19T09:17:29.136Z,3.17
2023-02-19T09:20:31.289Z,3.63
2023-02-19T09:23:35.428Z,2.75
2023-02-19T09:26:38.668Z,4.05
2023-02-19T09:29:40.379Z,3.65
2023-02-19T09:32:42.426Z,4.10
2023-02-19T09:35:44.433Z,3.75
2023-02-19T09:38:46.191Z,3.57
2023-02-19T09:41:51.910Z,3.47
2023-02-19T09:44:57.509Z,3.50
2023-02-19T09:47:59.220Z,4.90
2023-02-19T09:51:02.620Z,3.60
2023-02-19T09:54:09.883Z,4.63
2023-02-19T09:57:20.689Z,3.88
2023-02-19T10:00:30.508Z,3.95
2023-02-19T10:03:41.920Z,3.80
2023-02-19T10:06:44.103Z,3.03
2023-02-19T10:09:52.529Z,4.23
2023-02-19T10:13:00.825Z,2.40
2023-02-19T10:16:05.584Z,2.42
2023-02-19T10:19:15.933Z,3.17
2023-02-19T10:22:19.271Z,2.67
2023-02-19T10:25:20.976Z,2.85
2023-02-19T10:28:30.419Z,2.55
2023-02-19T10:31:34.661Z,4.35
2023-02-19T10:34:36.811Z,3.10
2023-02-19T10:37:49.732Z,2.88
2023-02-19T10:41:02.096Z,3.40
2023-02-19T10:44:16.424Z,3.38
2023-02-19T10:47:23.338Z,2.50
2023-02-19T10:50:32.731Z,3.03
2023-02-19T10:53:48.106Z,2.22
2023-02-19T10:56:50.273Z,2.08
2023-02-19T10:59:57.608Z,3.28
2023-02-19T11:03:21.441Z,1.75
2023-02-19T11:06:27.038Z,4.40
2023-02-19T11:09:37.102Z,2.70
2023-02-19T11:12:39.244Z,4.07
2023-02-19T11:15:41.702Z,3.42
2023-02-19T11:18:45.124Z,3.20
2023-02-19T11:21:47.914Z,6.00
2023-02-19T11:24:55.896Z,2.92
2023-02-19T11:28:23.812Z,2.65
2023-02-19T11:31:33.556Z,2.63
2023-02-19T11:34:35.903Z,4.03
2023-02-19T11:37:54.344Z,2.63
2023-02-19T11:41:15.100Z,3.60
2023-02-19T11:44:30.681Z,2.80
2023-02-19T11:47:50.526Z,3.05
2023-02-19T11:51:10.105Z,4.18
2023-02-19T11:54:48.782Z,3.97
2023-02-19T11:58:04.788Z,6.40
2023-02-19T12:01:44.040Z,3.25
2023-02-19T12:04:48.645Z,3.60
2023-02-19T12:08:13.731Z,3.17
2023-02-19T12:11:38.709Z,4.13
2023-02-19T12:15:21.145Z,2.88
2023-02-19T12:18:41.130Z,3.50
2023-02-19T12:21:51.422Z,3.55
2023-02-19T12:24:52.936Z,2.97
2023-02-19T12:28:09.660Z,3.23
2023-02-19T12:31:53.542Z,4.97
2023-02-19T12:34:55.166Z,3.58
2023-02-19T12:38:15.639Z,5.88
2023-02-19T12:41:35.788Z,3.40
2023-02-19T12:44:47.493Z,6.65
2023-02-19T12:48:03.698Z,3.47
2023-02-19T12:51:12.797Z,3.93
2023-02-19T12:54:23.839Z,3.40
2023-02-19T12:57:31.611Z,5.20
2023-02-19T13:00:33.138Z,7.63
2023-02-19T13:04:14.301Z,6.70
2023-02-19T13:07:41.790Z,9.52
2023-02-19T13:10:49.078Z,6.00
2023-02-19T13:13:55.689Z,4.75
2023-02-19T13:17:17.184Z,5.55
2023-02-19T13:20:27.956Z,5.50
2023-02-19T13:27:40.076Z,5.60
2023-02-19T13:30:52.956Z,5.32
2023-02-19T13:34:18.038Z,7.25
2023-02-19T13:37:20.676Z,5.50
2023-02-19T13:40:31.515Z,4.25
2023-02-19T13:43:38.941Z,6.43
2023-02-19T13:46:46.674Z,4.40
2023-02-19T13:49:52.232Z,4.68
2023-02-19T13:52:55.648Z,4.22
2023-02-19T13:55:57.222Z,3.47
2023-02-19T13:59:18.475Z,4.15
2023-02-19T14:02:23.064Z,3.38
2023-02-19T14:05:58.802Z,5.22
2023-02-19T14:09:00.619Z,6.60
2023-02-19T14:12:02.176Z,3.70
2023-02-19T14:15:44.179Z,4.25
2023-02-19T14:18:46.754Z,4.40
2023-02-19T14:21:48.736Z,4.13
2023-02-19T14:24:53.581Z,3.85
2023-02-19T14:28:24.141Z,4.73
2023-02-19T14:31:35.555Z,4.88
2023-02-19T14:34:37.352Z,9.07
2023-02-19T14:37:39.053Z,7.63
2023-02-19T14:40:42.232Z,6.35
2023-02-19T14:43:47.461Z,7.25
2023-02-19T14:46:56.788Z,6.07
2023-02-19T14:50:02.481Z,3.97
2023-02-19T14:53:07.274Z,11.80
2023-02-19T14:56:21.433Z,8.02
2023-02-19T14:59:27.611Z,6.07
2023-02-19T15:02:32.220Z,3.85
2023-02-19T15:05:36.798Z,4.57
2023-02-19T15:08:43.733Z,5.30
2023-02-19T15:11:45.395Z,5.30
2023-02-19T15:14:49.863Z,6.97
2023-02-19T15:17:53.664Z,5.18
2023-02-19T15:21:02.478Z,4.60
2023-02-19T15:24:06.090Z,3.78
2023-02-19T15:27:18.385Z,4.13
2023-02-19T15:30:26.697Z,6.80
2023-02-19T15:33:28.541Z,5.30
2023-02-19T15:36:32.404Z,5.22
2023-02-19T15:39:43.991Z,5.68
2023-02-19T15:42:47.191Z,7.22
2023-02-19T15:45:50.291Z,4.80
2023-02-19T15:48:56.775Z,5.10
2023-02-19T15:52:05.719Z,5.30
2023-02-19T15:55:27.084Z,5.43
2023-02-19T15:58:36.312Z,6.10
2023-02-19T16:01:39.004Z,4.90
2023-02-19T16:04:43.095Z,4.50
2023-02-19T16:07:47.370Z,5.28
2023-02-19T16:10:57.271Z,6.20
2023-02-19T16:14:19.223Z,6.18
2023-02-19T16:17:25.103Z,6.10
2023-02-19T16:20:28.493Z,5.50
2023-02-19T16:23:31.293Z,6.10
2023-02-19T16:26:44.680Z,8.85
2023-02-19T16:29:51.067Z,14.98
2023-02-19T16:33:21.824Z,9.87
2023-02-19T16:36:35.685Z,9.23
2023-02-19T16:39:40.421Z,9.35
2023-02-19T16:42:51.242Z,7.75
2023-02-19T16:45:53.445Z,7.60
2023-02-19T16:48:55.046Z,7.80
2023-02-19T16:51:59.399Z,8.30
2023-02-19T16:55:01.782Z,10.90
2023-02-19T16:58:03.461Z,11.90
2023-02-19T17:01:05.207Z,13.27
2023-02-19T17:04:09.597Z,10.53
2023-02-19T17:07:17.155Z,8.27
2023-02-19T17:10:23.491Z,8.75
2023-02-19T17:13:25.104Z,7.72
2023-02-19T17:16:29.600Z,7.47
2023-02-19T17:19:31.324Z,6.05
2023-02-19T17:22:33.631Z,5.80
2023-02-19T17:25:35.270Z,8.83
2023-02-19T17:28:36.853Z,8.63
2023-02-19T17:31:38.453Z,6.68
2023-02-19T17:34:40.183Z,6.90
2023-02-19T17:37:41.792Z,7.80
2023-02-19T17:40:45.049Z,6.70
2023-02-19T17:43:47.582Z,10.20
2023-02-19T17:46:49.445Z,7.70
2023-02-19T17:49:52.008Z,8.90
2023-02-19T17:52:53.599Z,9.50
2023-02-19T17:55:55.185Z,8.77
2023-02-19T17:58:59.953Z,5.88
2023-02-19T18:02:03.207Z,6.03
2023-02-19T18:05:05.044Z,8.33
2023-02-19T18:08:06.626Z,6.32
2023-02-19T18:11:08.488Z,9.10
2023-02-19T18:14:10.037Z,7.13
2023-02-19T18:17:11.655Z,5.55
2023-02-19T18:20:16.191Z,5.15
2023-02-19T18:23:17.883Z,5.75
2023-02-19T18:26:21.505Z,6.43
2023-02-19T18:29:24.593Z,6.70
2023-02-19T18:32:26.307Z,7.32
2023-02-19T18:35:28.088Z,5.70
2023-02-19T18:38:29.877Z,8.95
2023-02-19T18:41:31.409Z,7.55
2023-02-19T18:44:36.861Z,6.28
2023-02-19T18:47:38.515Z,5.43
2023-02-19T18:50:40.194Z,6.78
2023-02-19T18:53:44.596Z,10.23
2023-02-19T18:56:46.950Z,7.40
2023-02-19T18:59:48.869Z,7.53
2023-02-19T19:02:51.414Z,8.30
2023-02-19T19:05:53.334Z,6.90
2023-02-19T19:08:54.963Z,6.63
2023-02-19T19:11:56.509Z,12.35
2023-02-19T19:14:58.067Z,8.38
2023-02-19T19:18:00.011Z,7.63
2023-02-19T19:21:03.542Z,7.82
2023-02-19T19:24:05.625Z,8.18
2023-02-19T19:27:07.234Z,9.27
2023-02-19T19:30:09.420Z,10.68
2023-02-19T19:33:12.105Z,8.52
2023-02-19T19:36:20.236Z,9.00
2023-02-19T19:39:21.860Z,7.32
2023-02-19T19:42:24.341Z,10.88
2023-02-19T19:45:25.974Z,12.35
2023-02-19T19:48:27.784Z,13.20
2023-02-19T19:51:33.877Z,11.80
2023-02-19T19:54:35.600Z,10.43
2023-02-19T19:57:38.534Z,10.47
2023-02-19T20:00:43.360Z,9.10
2023-02-19T20:03:44.895Z,11.38
2023-02-19T20:06:46.866Z,12.33
2023-02-19T20:09:50.761Z,9.27
2023-02-19T20:12:52.597Z,7.57
2023-02-19T20:15:54.265Z,6.82
2023-02-19T20:18:55.944Z,8.48
2023-02-19T20:21:57.628Z,10.60
2023-02-19T20:24:59.361Z,8.20
2023-02-19T20:28:01.419Z,6.50
2023-02-19T20:31:03.254Z,6.88
2023-02-19T20:34:05.455Z,7.93
2023-02-19T20:37:07.586Z,6.47
2023-02-19T20:40:11.841Z,7.57
2023-02-19T20:43:13.506Z,6.90
2023-02-19T20:46:15.715Z,6.22
2023-02-19T20:49:19.592Z,7.53
2023-02-19T20:52:21.807Z,6.10
2023-02-19T20:55:24.933Z,8.75
2023-02-19T20:58:26.950Z,6.90
2023-02-19T21:01:29.065Z,6.85
2023-02-19T21:04:30.798Z,6.80
2023-02-19T21:07:32.407Z,5.97
2023-02-19T21:10:34.805Z,6.80
2023-02-19T21:13:36.692Z,5.60
2023-02-19T21:16:38.317Z,9.85
2023-02-19T21:19:40.164Z,6.15
2023-02-19T21:22:42.207Z,6.05
2023-02-19T21:25:43.875Z,6.60
2023-02-19T21:28:50.668Z,6.77
2023-02-19T21:31:55.917Z,6.20
2023-02-19T21:34:57.671Z,5.55
2023-02-19T21:37:59.326Z,6.73
2023-02-19T21:41:00.908Z,5.93
2023-02-19T21:44:03.667Z,6.30
2023-02-19T21:47:05.328Z,5.57
2023-02-19T21:50:07.474Z,7.50
2023-02-19T21:53:09.054Z,5.97
2023-02-19T21:56:10.896Z,6.07
2023-02-19T21:59:13.043Z,6.53
2023-02-19T22:02:15.163Z,6.10
2023-02-19T22:05:16.838Z,5.60
2023-02-19T22:08:18.699Z,5.20
2023-02-19T22:11:20.651Z,6.90
2023-02-19T22:14:22.256Z,6.47
2023-02-19T22:17:23.961Z,7.00
2023-02-19T22:20:25.527Z,7.88
2023-02-19T22:23:27.123Z,5.22
2023-02-19T22:26:30.500Z,6.13
2023-02-19T22:29:32.133Z,5.83
2023-02-19T22:32:33.827Z,7.10
2023-02-19T22:35:35.563Z,7.60
2023-02-19T22:38:37.165Z,8.20
2023-02-19T22:41:42.385Z,5.65
2023-02-19T22:44:44.048Z,5.47
2023-02-19T22:47:46.987Z,7.25
2023-02-19T22:50:48.868Z,6.85
2023-02-19T22:53:53.425Z,7.22
2023-02-19T22:56:56.135Z,5.72
2023-02-19T22:59:57.667Z,5.67
2023-02-19T23:02:59.561Z,7.13
2023-02-19T23:06:04.778Z,5.80
2023-02-19T23:09:10.946Z,5.37
2023-02-19T23:12:12.783Z,6.28
2023-02-19T23:15:14.436Z,6.70
2023-02-19T23:18:16.013Z,6.35
2023-02-19T23:21:19.204Z,6.45
2023-02-19T23:24:20.803Z,6.05
2023-02-19T23:27:24.212Z,5.80
2023-02-19T23:30:26.186Z,6.47
2023-02-19T23:33:27.979Z,5.70
2023-02-19T23:36:29.533Z,6.68
2023-02-19T23:39:31.292Z,6.93
2023-02-19T23:42:32.948Z,5.70
2023-02-19T23:45:34.829Z,6.80
2023-02-19T23:48:36.425Z,6.97
2023-02-19T23:51:38.069Z,7.75
2023-02-19T23:54:39.656Z,6.05
2023-02-19T23:57:41.693Z,5.50
